createdAt,value
2023-01-19T00:00:48.172Z,9.30
2023-01-19T00:01:48.163Z,8.10
2023-01-19T00:02:48.213Z,8.70
2023-01-19T00:03:48.131Z,8.80
2023-01-19T00:04:48.135Z,8.80
2023-01-19T00:05:48.149Z,8.60
2023-01-19T00:06:48.101Z,8.10
2023-01-19T00:07:48.124Z,8.40
2023-01-19T00:08:48.083Z,8.80
2023-01-19T00:09:48.072Z,8.70
2023-01-19T00:10:48.107Z,8.40
2023-01-19T00:11:48.062Z,8.70
2023-01-19T00:12:48.035Z,9.50
2023-01-19T00:13:48.082Z,8.80
2023-01-19T00:14:48.011Z,8.90
2023-01-19T00:15:48.011Z,9.40
2023-01-19T00:16:47.993Z,9.50
2023-01-19T00:17:48.012Z,9.20
2023-01-19T00:18:47.973Z,9.40
2023-01-19T00:19:47.967Z,9.10
2023-01-19T00:20:47.954Z,8.50
2023-01-19T00:21:47.945Z,9.60
2023-01-19T00:22:47.943Z,9.10
2023-01-19T00:23:47.933Z,9.50
2023-01-19T00:24:47.904Z,9.60
2023-01-19T00:25:47.934Z,10.20
2023-01-19T00:26:47.883Z,10.10
2023-01-19T00:27:47.891Z,9.60
2023-01-19T00:28:47.864Z,9.20
2023-01-19T00:29:47.881Z,9.20
2023-01-19T00:30:47.867Z,9.60
2023-01-19T00:31:47.932Z,10.00
2023-01-19T00:32:47.845Z,9.60
2023-01-19T00:33:47.813Z,9.60
2023-01-19T00:34:47.802Z,10.00
2023-01-19T00:35:47.817Z,9.40
2023-01-19T00:36:47.786Z,10.00
2023-01-19T00:37:47.832Z,9.80
2023-01-19T00:38:47.790Z,10.10
2023-01-19T00:39:47.753Z,10.10
2023-01-19T00:40:47.742Z,9.80
2023-01-19T00:41:47.741Z,9.60
2023-01-19T00:42:47.712Z,9.50
2023-01-19T00:43:47.741Z,10.20
2023-01-19T00:44:47.709Z,9.60
2023-01-19T00:45:47.710Z,9.60
2023-01-19T00:46:47.681Z,9.40
2023-01-19T00:47:47.679Z,9.40
2023-01-19T00:48:47.664Z,9.40
2023-01-19T00:49:47.652Z,9.70
2023-01-19T00:50:47.651Z,9.40
2023-01-19T00:51:47.623Z,10.00
2023-01-19T00:52:47.613Z,9.20
2023-01-19T00:53:47.626Z,8.90
2023-01-19T00:54:47.603Z,9.30
2023-01-19T00:55:47.601Z,8.90
2023-01-19T00:56:47.573Z,9.30
2023-01-19T00:57:47.565Z,9.40
2023-01-19T00:58:47.578Z,9.10
2023-01-19T00:59:47.552Z,9.10
2023-01-19T01:00:47.574Z,9.40
2023-01-19T01:01:47.642Z,8.90
2023-01-19T01:02:47.547Z,9.00
2023-01-19T01:03:47.513Z,9.50
2023-01-19T01:04:47.504Z,9.30
2023-01-19T01:05:48.434Z,9.20
2023-01-19T01:06:47.467Z,9.50
2023-01-19T01:07:47.491Z,9.60
2023-01-19T01:08:47.454Z,9.50
2023-01-19T01:09:47.449Z,9.30
2023-01-19T01:10:47.425Z,10.10
2023-01-19T01:11:47.415Z,10.00
2023-01-19T01:12:55.719Z,10.30
2023-01-19T01:13:48.416Z,9.80
2023-01-19T01:14:47.399Z,9.70
2023-01-19T01:15:47.396Z,10.20
2023-01-19T01:16:47.405Z,10.20
2023-01-19T01:17:47.360Z,10.70
2023-01-19T01:18:47.353Z,10.20
2023-01-19T01:19:47.333Z,10.30
2023-01-19T01:20:47.421Z,9.90
2023-01-19T01:21:47.344Z,9.80
2023-01-19T01:22:47.301Z,10.10
2023-01-19T01:23:47.306Z,10.80
2023-01-19T01:24:47.273Z,9.80
2023-01-19T01:25:47.264Z,10.60
2023-01-19T01:26:47.270Z,10.00
2023-01-19T01:27:47.274Z,10.40
2023-01-19T01:28:47.278Z,9.60
2023-01-19T01:29:47.233Z,10.60
2023-01-19T01:30:47.205Z,9.60
2023-01-19T01:31:47.308Z,10.00
2023-01-19T01:32:47.201Z,9.70
2023-01-19T01:33:47.204Z,9.60
2023-01-19T01:34:47.164Z,9.80
2023-01-19T01:35:47.171Z,9.30
2023-01-19T01:36:47.145Z,9.70
2023-01-19T01:37:47.163Z,9.90
2023-01-19T01:38:47.124Z,9.80
2023-01-19T01:39:47.115Z,9.60
2023-01-19T01:40:47.114Z,9.50
2023-01-19T01:41:47.104Z,9.50
2023-01-19T01:42:47.110Z,9.50
2023-01-19T01:43:47.109Z,9.10
2023-01-19T01:44:47.085Z,10.00
2023-01-19T01:45:47.078Z,9.10
2023-01-19T01:46:47.046Z,8.90
2023-01-19T01:47:47.078Z,9.10
2023-01-19T01:48:47.018Z,8.60
2023-01-19T01:49:47.027Z,9.50
2023-01-19T01:50:47.247Z,9.10
2023-01-19T01:51:47.013Z,8.50
2023-01-19T01:53:06.582Z,9.00
2023-01-19T01:53:47.973Z,9.20
2023-01-19T01:54:46.981Z,8.70
2023-01-19T01:55:46.969Z,9.00
2023-01-19T01:56:46.934Z,8.30
2023-01-19T01:57:46.937Z,9.00
2023-01-19T01:58:46.916Z,8.40
2023-01-19T01:59:46.944Z,9.10
2023-01-19T02:00:46.916Z,9.20
2023-01-19T02:01:46.974Z,8.70
2023-01-19T02:02:46.952Z,8.50
2023-01-19T02:03:46.870Z,8.60
2023-01-19T02:04:46.908Z,8.90
2023-01-19T02:05:46.902Z,8.40
2023-01-19T02:06:46.838Z,8.90
2023-01-19T02:07:46.836Z,9.20
2023-01-19T02:08:46.809Z,8.50
2023-01-19T02:09:46.814Z,8.30
2023-01-19T02:10:46.795Z,8.50
2023-01-19T02:11:46.784Z,8.20
2023-01-19T02:12:46.773Z,8.00
2023-01-19T02:13:46.758Z,8.50
2023-01-19T02:14:46.745Z,7.40
2023-01-19T02:15:46.766Z,8.50
2023-01-19T02:16:46.772Z,7.90
2023-01-19T02:17:46.737Z,7.50
2023-01-19T02:18:46.712Z,7.70
2023-01-19T02:19:46.695Z,7.50
2023-01-19T02:20:46.684Z,7.00
2023-01-19T02:21:46.669Z,6.80
2023-01-19T02:22:46.677Z,6.40
2023-01-19T02:23:46.670Z,6.90
2023-01-19T02:24:46.640Z,6.50
2023-01-19T02:25:46.647Z,6.50
2023-01-19T02:26:46.624Z,5.60
2023-01-19T02:27:46.618Z,5.70
2023-01-19T02:28:46.604Z,5.20
2023-01-19T02:29:46.583Z,4.80
2023-01-19T02:30:46.597Z,4.30
2023-01-19T02:31:46.566Z,4.60
2023-01-19T02:32:46.593Z,4.90
2023-01-19T02:33:46.545Z,4.30
2023-01-19T02:34:46.535Z,4.80
2023-01-19T02:35:46.526Z,4.60
2023-01-19T02:36:46.516Z,4.50
2023-01-19T02:37:46.514Z,4.50
2023-01-19T02:38:46.496Z,4.30
2023-01-19T02:39:46.624Z,4.20
2023-01-19T02:40:46.485Z,4.30
2023-01-19T02:41:46.463Z,4.10
2023-01-19T02:42:46.455Z,4.10
2023-01-19T02:43:46.448Z,4.20
2023-01-19T02:44:46.440Z,4.20
2023-01-19T02:45:46.461Z,4.00
2023-01-19T02:46:46.406Z,4.30
2023-01-19T02:47:46.408Z,4.00
2023-01-19T02:48:46.384Z,3.80
2023-01-19T02:49:46.384Z,3.80
2023-01-19T02:50:46.390Z,3.80
2023-01-19T02:51:46.377Z,3.60
2023-01-19T02:52:46.364Z,4.40
2023-01-19T02:53:46.333Z,3.70
2023-01-19T02:54:46.333Z,3.50
2023-01-19T02:55:46.305Z,3.90
2023-01-19T02:56:46.307Z,3.90
2023-01-19T02:57:46.294Z,4.10
2023-01-19T02:58:46.290Z,3.80
2023-01-19T02:59:46.277Z,4.10
2023-01-19T03:00:46.254Z,4.30
2023-01-19T03:01:46.361Z,4.40
2023-01-19T03:02:46.294Z,3.90
2023-01-19T03:03:46.221Z,4.40
2023-01-19T03:04:46.244Z,4.30
2023-01-19T03:05:46.215Z,4.40
2023-01-19T03:06:46.202Z,3.90
2023-01-19T03:07:46.199Z,4.30
2023-01-19T03:08:46.179Z,5.00
2023-01-19T03:09:46.154Z,4.70
2023-01-19T03:10:46.158Z,4.20
2023-01-19T03:11:46.136Z,4.50
2023-01-19T03:12:46.135Z,4.40
2023-01-19T03:13:46.127Z,4.30
2023-01-19T03:14:46.119Z,4.60
2023-01-19T03:15:46.117Z,4.60
2023-01-19T03:16:46.137Z,4.90
2023-01-19T03:17:46.093Z,4.20
2023-01-19T03:18:46.065Z,4.50
2023-01-19T03:19:46.055Z,4.90
2023-01-19T03:20:46.046Z,4.40
2023-01-19T03:21:46.024Z,4.60
2023-01-19T03:22:46.047Z,4.30
2023-01-19T03:23:46.019Z,4.80
2023-01-19T03:24:46.024Z,4.60
2023-01-19T03:25:45.995Z,4.10
2023-01-19T03:26:46.002Z,4.50
2023-01-19T03:27:45.987Z,4.30
2023-01-19T03:28:45.979Z,4.30
2023-01-19T03:29:45.955Z,4.70
2023-01-19T03:30:45.971Z,4.20
2023-01-19T03:31:45.926Z,3.90
2023-01-19T03:32:45.939Z,4.60
2023-01-19T03:33:45.897Z,4.10
2023-01-19T03:34:45.896Z,4.10
2023-01-19T03:35:45.897Z,4.00
2023-01-19T03:36:45.891Z,4.00
2023-01-19T03:37:45.879Z,4.30
2023-01-19T03:38:45.875Z,4.40
2023-01-19T03:39:45.853Z,4.30
2023-01-19T03:40:45.846Z,4.50
2023-01-19T03:41:45.826Z,4.60
2023-01-19T03:42:45.845Z,4.40
2023-01-19T03:43:45.806Z,4.50
2023-01-19T03:44:45.797Z,4.70
2023-01-19T03:45:45.795Z,4.60
2023-01-19T03:46:45.774Z,4.60
2023-01-19T03:47:45.767Z,5.00
2023-01-19T03:48:45.766Z,4.80
2023-01-19T03:49:45.736Z,4.50
2023-01-19T03:50:45.748Z,5.10
2023-01-19T03:51:45.718Z,5.10
2023-01-19T03:52:45.738Z,4.10
2023-01-19T03:53:45.704Z,4.70
2023-01-19T03:54:45.690Z,4.80
2023-01-19T03:55:45.677Z,4.90
2023-01-19T03:56:45.677Z,4.50
2023-01-19T03:57:45.658Z,4.50
2023-01-19T03:58:45.677Z,5.00
2023-01-19T03:59:45.634Z,4.60
2023-01-19T04:00:45.618Z,4.80
2023-01-19T04:01:45.771Z,4.90
2023-01-19T04:02:45.677Z,4.90
2023-01-19T04:03:45.587Z,4.80
2023-01-19T04:04:45.598Z,5.20
2023-01-19T04:05:45.575Z,5.20
2023-01-19T04:06:45.559Z,4.90
2023-01-19T04:07:45.562Z,5.20
2023-01-19T04:08:45.537Z,5.00
2023-01-19T04:09:45.526Z,5.30
2023-01-19T04:10:45.525Z,4.70
2023-01-19T04:11:45.520Z,5.40
2023-01-19T04:12:45.514Z,5.20
2023-01-19T04:13:45.480Z,4.80
2023-01-19T04:14:45.496Z,5.10
2023-01-19T04:15:45.489Z,5.40
2023-01-19T04:16:45.457Z,4.90
2023-01-19T04:17:45.449Z,5.30
2023-01-19T04:18:45.437Z,5.00
2023-01-19T04:19:45.417Z,4.90
2023-01-19T04:20:45.417Z,5.30
2023-01-19T04:21:45.398Z,5.10
2023-01-19T04:22:45.406Z,5.30
2023-01-19T04:23:45.377Z,5.40
2023-01-19T04:24:45.377Z,5.60
2023-01-19T04:25:45.369Z,5.90
2023-01-19T04:26:45.348Z,5.50
2023-01-19T04:27:45.356Z,5.30
2023-01-19T04:28:45.341Z,5.60
2023-01-19T04:29:45.319Z,6.30
2023-01-19T04:30:45.319Z,5.90
2023-01-19T04:31:45.314Z,5.70
2023-01-19T04:32:45.300Z,6.40
2023-01-19T04:33:45.308Z,5.70
2023-01-19T04:34:45.268Z,6.30
2023-01-19T04:35:45.278Z,7.20
2023-01-19T04:36:45.256Z,6.50
2023-01-19T04:37:45.246Z,6.50
2023-01-19T04:38:45.230Z,6.50
2023-01-19T04:39:45.221Z,6.80
2023-01-19T04:40:45.198Z,6.50
2023-01-19T04:41:45.195Z,6.60
2023-01-19T04:42:45.212Z,6.90
2023-01-19T04:43:45.176Z,7.00
2023-01-19T04:44:45.157Z,6.60
2023-01-19T04:45:45.149Z,6.90
2023-01-19T04:46:45.224Z,6.60
2023-01-19T04:47:45.161Z,6.60
2023-01-19T04:48:45.141Z,6.10
2023-01-19T04:49:45.109Z,6.60
2023-01-19T04:50:45.229Z,6.00
2023-01-19T04:51:45.109Z,6.50
2023-01-19T04:52:45.078Z,6.20
2023-01-19T04:53:45.077Z,6.50
2023-01-19T04:54:45.059Z,6.50
2023-01-19T04:55:45.058Z,6.80
2023-01-19T04:56:45.028Z,6.30
2023-01-19T04:57:45.027Z,7.00
2023-01-19T04:58:45.040Z,6.50
2023-01-19T04:59:45.070Z,7.10
2023-01-19T05:00:44.982Z,6.10
2023-01-19T05:01:45.012Z,6.70
2023-01-19T05:02:45.001Z,6.70
2023-01-19T05:03:44.959Z,6.90
2023-01-19T05:04:44.939Z,6.90
2023-01-19T05:05:44.940Z,7.00
2023-01-19T05:06:45.059Z,6.80
2023-01-19T05:07:44.930Z,6.50
2023-01-19T05:08:45.522Z,6.20
2023-01-19T05:09:44.929Z,6.40
2023-01-19T05:10:44.888Z,6.20
2023-01-19T05:11:44.897Z,6.10
2023-01-19T05:12:44.882Z,6.20
2023-01-19T05:13:44.897Z,6.00
2023-01-19T05:14:44.852Z,5.90
2023-01-19T05:15:44.842Z,5.60
2023-01-19T05:16:44.820Z,6.10
2023-01-19T05:17:44.832Z,6.10
2023-01-19T05:18:44.812Z,5.60
2023-01-19T05:19:44.790Z,5.40
2023-01-19T05:20:44.770Z,5.40
2023-01-19T05:21:44.760Z,5.20
2023-01-19T05:22:44.899Z,5.60
2023-01-19T05:23:44.760Z,5.20
2023-01-19T05:24:44.730Z,5.00
2023-01-19T05:25:44.727Z,4.80
2023-01-19T05:26:44.715Z,5.00
2023-01-19T05:27:44.740Z,4.60
2023-01-19T05:28:44.700Z,4.80
2023-01-19T05:29:44.688Z,4.30
2023-01-19T05:30:44.688Z,4.90
2023-01-19T05:31:44.689Z,4.50
2023-01-19T05:32:44.664Z,3.90
2023-01-19T05:33:44.640Z,4.00
2023-01-19T05:34:44.629Z,4.40
2023-01-19T05:35:44.635Z,4.30
2023-01-19T05:36:44.618Z,3.90
2023-01-19T05:37:44.628Z,3.90
2023-01-19T05:38:44.597Z,3.60
2023-01-19T05:39:44.570Z,3.90
2023-01-19T05:40:44.581Z,3.60
2023-01-19T05:41:44.554Z,3.80
2023-01-19T05:42:44.551Z,3.60
2023-01-19T05:43:44.589Z,3.70
2023-01-19T05:44:44.593Z,3.60
2023-01-19T05:45:44.510Z,3.80
2023-01-19T05:46:44.566Z,3.50
2023-01-19T05:47:44.509Z,3.50
2023-01-19T05:48:44.481Z,3.60
2023-01-19T05:49:44.462Z,3.70
2023-01-19T05:50:44.502Z,3.30
2023-01-19T05:51:44.440Z,4.00
2023-01-19T05:52:44.461Z,4.00
2023-01-19T05:53:44.440Z,3.60
2023-01-19T05:54:44.412Z,4.20
2023-01-19T05:55:44.403Z,3.50
2023-01-19T05:56:44.405Z,3.60
2023-01-19T05:57:44.392Z,4.00
2023-01-19T05:58:44.372Z,4.00
2023-01-19T05:59:44.378Z,3.80
2023-01-19T06:00:44.351Z,4.00
2023-01-19T06:01:44.374Z,3.70
2023-01-19T06:02:44.405Z,4.00
2023-01-19T06:03:44.317Z,3.70
2023-01-19T06:04:44.322Z,3.60
2023-01-19T06:05:44.292Z,3.90
2023-01-19T06:06:44.282Z,4.00
2023-01-19T06:07:44.364Z,3.90
2023-01-19T06:08:44.263Z,4.10
2023-01-19T06:09:44.270Z,3.70
2023-01-19T06:10:44.242Z,3.60
2023-01-19T06:11:44.222Z,3.90
2023-01-19T06:12:44.272Z,3.70
2023-01-19T06:13:44.213Z,4.20
2023-01-19T06:14:44.201Z,4.30
2023-01-19T06:15:44.182Z,3.90
2023-01-19T06:16:44.233Z,4.00
2023-01-19T06:17:44.186Z,4.20
2023-01-19T06:18:44.162Z,4.30
2023-01-19T06:19:44.156Z,4.60
2023-01-19T06:20:44.159Z,4.10
2023-01-19T06:21:44.120Z,4.20
2023-01-19T06:22:44.176Z,3.90
2023-01-19T06:23:44.133Z,4.10
2023-01-19T06:24:44.101Z,3.70
2023-01-19T06:25:44.113Z,4.20
2023-01-19T06:26:44.096Z,3.90
2023-01-19T06:27:44.074Z,4.30
2023-01-19T06:28:44.052Z,4.20
2023-01-19T06:29:44.034Z,4.40
2023-01-19T06:30:44.074Z,4.40
2023-01-19T06:31:44.133Z,4.60
2023-01-19T06:32:44.043Z,4.50
2023-01-19T06:33:43.996Z,4.80
2023-01-19T06:34:44.048Z,4.60
2023-01-19T06:35:43.984Z,5.00
2023-01-19T06:36:43.970Z,4.80
2023-01-19T06:37:43.973Z,5.00
2023-01-19T06:38:43.948Z,5.20
2023-01-19T06:39:43.924Z,5.10
2023-01-19T06:40:43.925Z,5.20
2023-01-19T06:41:43.915Z,5.60
2023-01-19T06:42:43.913Z,5.90
2023-01-19T06:43:43.897Z,5.80
2023-01-19T06:44:43.910Z,5.80
2023-01-19T06:45:45.220Z,5.50
2023-01-19T06:46:43.893Z,5.50
2023-01-19T06:47:43.856Z,6.40
2023-01-19T06:48:43.866Z,6.00
2023-01-19T06:49:43.845Z,6.30
2023-01-19T06:50:43.828Z,6.40
2023-01-19T06:51:43.805Z,6.10
2023-01-19T06:52:43.883Z,6.60
2023-01-19T06:53:43.816Z,6.10
2023-01-19T06:54:43.774Z,6.80
2023-01-19T06:55:43.784Z,6.90
2023-01-19T06:56:43.767Z,6.40
2023-01-19T06:57:43.754Z,6.90
2023-01-19T06:58:43.765Z,7.80
2023-01-19T06:59:43.775Z,7.00
2023-01-19T07:00:43.753Z,7.00
2023-01-19T07:01:43.770Z,7.10
2023-01-19T07:02:43.751Z,7.10
2023-01-19T07:03:45.530Z,7.80
2023-01-19T07:04:43.677Z,7.30
2023-01-19T07:05:43.675Z,7.50
2023-01-19T07:06:43.644Z,7.60
2023-01-19T07:07:43.653Z,7.10
2023-01-19T07:08:43.633Z,7.60
2023-01-19T07:09:43.615Z,7.40
2023-01-19T07:11:26.905Z,8.10
2023-01-19T07:11:44.591Z,8.20
2023-01-19T07:12:43.595Z,8.00
2023-01-19T07:13:43.578Z,8.10
2023-01-19T07:14:43.584Z,8.20
2023-01-19T07:15:43.547Z,8.00
2023-01-19T07:16:43.646Z,8.40
2023-01-19T07:17:43.555Z,8.50
2023-01-19T07:18:43.524Z,8.20
2023-01-19T07:19:43.503Z,9.30
2023-01-19T07:20:43.522Z,8.30
2023-01-19T07:21:43.485Z,8.70
2023-01-19T07:22:43.532Z,8.60
2023-01-19T07:23:43.534Z,8.00
2023-01-19T07:24:43.536Z,8.30
2023-01-19T07:25:43.456Z,8.90
2023-01-19T07:26:43.446Z,8.40
2023-01-19T07:27:43.431Z,8.70
2023-01-19T07:28:43.418Z,8.40
2023-01-19T07:29:43.405Z,8.60
2023-01-19T07:30:43.501Z,8.60
2023-01-19T07:31:43.612Z,8.40
2023-01-19T07:32:43.384Z,9.00
2023-01-19T07:33:43.400Z,11.20
2023-01-19T07:34:43.350Z,8.90
2023-01-19T07:35:43.346Z,9.00
2023-01-19T07:36:43.330Z,8.90
2023-01-19T07:37:43.346Z,9.40
2023-01-19T07:38:43.315Z,8.80
2023-01-19T07:39:43.310Z,8.90
2023-01-19T07:40:43.297Z,8.80
2023-01-19T07:41:43.284Z,8.90
2023-01-19T07:42:43.277Z,9.30
2023-01-19T07:43:43.285Z,8.40
2023-01-19T07:44:43.251Z,9.00
2023-01-19T07:45:43.285Z,8.80
2023-01-19T07:46:43.228Z,8.80
2023-01-19T07:47:43.235Z,8.80
2023-01-19T07:48:43.198Z,8.90
2023-01-19T07:49:43.196Z,9.70
2023-01-19T07:50:43.227Z,9.40
2023-01-19T07:51:43.167Z,9.50
2023-01-19T07:52:43.178Z,9.80
2023-01-19T07:53:43.157Z,9.40
2023-01-19T07:54:43.134Z,9.30
2023-01-19T07:55:43.128Z,9.10
2023-01-19T07:56:43.117Z,9.70
2023-01-19T07:57:43.126Z,10.20
2023-01-19T07:58:43.096Z,9.40
2023-01-19T07:59:43.155Z,10.20
2023-01-19T08:00:43.125Z,9.60
2023-01-19T08:01:43.134Z,9.50
2023-01-19T08:02:43.068Z,9.90
2023-01-19T08:03:43.052Z,10.60
2023-01-19T08:04:43.122Z,9.70
2023-01-19T08:05:43.017Z,10.00
2023-01-19T08:06:43.055Z,10.30
2023-01-19T08:07:43.036Z,10.80
2023-01-19T08:08:42.996Z,10.60
2023-01-19T08:09:42.978Z,10.10
2023-01-19T08:10:42.969Z,11.20
2023-01-19T08:11:42.967Z,10.20
2023-01-19T08:12:42.958Z,9.90
2023-01-19T08:13:42.949Z,10.00
2023-01-19T08:14:42.927Z,9.80
2023-01-19T08:15:43.002Z,9.90
2023-01-19T08:16:42.913Z,10.20
2023-01-19T08:17:42.923Z,10.00
2023-01-19T08:18:42.876Z,9.30
2023-01-19T08:19:42.881Z,9.80
2023-01-19T08:20:42.880Z,9.60
2023-01-19T08:21:42.870Z,9.50
2023-01-19T08:22:42.904Z,9.60
2023-01-19T08:23:42.867Z,9.70
2023-01-19T08:24:42.817Z,9.50
2023-01-19T08:25:42.816Z,9.60
2023-01-19T08:26:42.800Z,9.20
2023-01-19T08:27:42.816Z,9.80
2023-01-19T08:28:42.778Z,9.70
2023-01-19T08:29:42.778Z,9.20
2023-01-19T08:30:42.812Z,9.80
2023-01-19T08:31:42.809Z,8.90
2023-01-19T08:32:42.751Z,9.20
2023-01-19T08:33:42.728Z,8.90
2023-01-19T08:34:42.724Z,9.50
2023-01-19T08:35:42.725Z,9.50
2023-01-19T08:36:42.707Z,9.20
2023-01-19T08:37:42.705Z,9.10
2023-01-19T08:38:42.679Z,9.10
2023-01-19T08:39:42.668Z,9.70
2023-01-19T08:40:42.656Z,9.10
2023-01-19T08:41:42.648Z,9.60
2023-01-19T08:42:42.632Z,9.50
2023-01-19T08:43:42.619Z,9.30
2023-01-19T08:44:57.355Z,9.90
2023-01-19T08:45:43.602Z,9.00
2023-01-19T08:46:42.652Z,8.40
2023-01-19T08:47:42.602Z,9.00
2023-01-19T08:48:42.559Z,8.90
2023-01-19T08:49:42.558Z,8.90
2023-01-19T08:50:42.542Z,8.80
2023-01-19T08:51:42.540Z,9.20
2023-01-19T08:52:42.619Z,9.60
2023-01-19T08:53:42.517Z,9.20
2023-01-19T08:54:42.499Z,9.10
2023-01-19T08:55:42.498Z,9.40
2023-01-19T08:56:42.492Z,9.30
2023-01-19T08:57:42.482Z,9.80
2023-01-19T08:58:42.451Z,9.70
2023-01-19T08:59:42.448Z,9.10
2023-01-19T09:00:42.439Z,9.20
2023-01-19T09:01:42.551Z,9.40
2023-01-19T09:02:42.436Z,9.80
2023-01-19T09:03:42.419Z,9.50
2023-01-19T09:04:42.401Z,9.70
2023-01-19T09:05:42.401Z,9.90
2023-01-19T09:06:42.391Z,9.50
2023-01-19T09:07:42.382Z,9.30
2023-01-19T09:08:42.362Z,9.20
2023-01-19T09:09:42.349Z,9.90
2023-01-19T09:10:42.329Z,9.70
2023-01-19T09:11:42.321Z,10.10
2023-01-19T09:12:42.322Z,10.50
2023-01-19T09:13:42.313Z,10.30
2023-01-19T09:14:42.288Z,10.00
2023-01-19T09:15:42.408Z,10.00
2023-01-19T09:16:42.265Z,10.20
2023-01-19T09:17:42.313Z,10.30
2023-01-19T09:18:42.247Z,11.10
2023-01-19T09:19:42.241Z,9.90
2023-01-19T09:20:42.223Z,10.30
2023-01-19T09:21:42.232Z,9.80
2023-01-19T09:22:42.247Z,9.90
2023-01-19T09:23:42.209Z,10.50
2023-01-19T09:24:42.185Z,9.60
2023-01-19T09:25:42.186Z,10.00
2023-01-19T09:26:42.170Z,9.80
2023-01-19T09:27:42.177Z,10.30
2023-01-19T09:28:42.141Z,10.10
2023-01-19T09:29:42.132Z,9.80
2023-01-19T09:30:42.163Z,10.20
2023-01-19T09:31:42.153Z,10.00
2023-01-19T09:32:42.261Z,9.40
2023-01-19T09:33:42.094Z,9.70
2023-01-19T09:34:42.083Z,10.40
2023-01-19T09:35:42.061Z,9.50
2023-01-19T09:36:42.052Z,9.70
2023-01-19T09:37:42.063Z,9.30
2023-01-19T09:38:42.053Z,9.50
2023-01-19T09:39:42.093Z,8.90
2023-01-19T09:40:42.302Z,9.80
2023-01-19T09:41:42.011Z,9.60
2023-01-19T09:42:42.012Z,9.10
2023-01-19T09:43:41.981Z,8.10
2023-01-19T09:44:41.967Z,9.50
2023-01-19T09:45:41.955Z,8.60
2023-01-19T09:46:42.025Z,9.30
2023-01-19T09:47:41.944Z,9.50
2023-01-19T09:48:41.922Z,9.00
2023-01-19T09:49:41.911Z,8.80
2023-01-19T09:50:44.068Z,8.70
2023-01-19T09:51:41.896Z,9.10
2023-01-19T09:52:41.958Z,9.20
2023-01-19T09:53:41.862Z,9.30
2023-01-19T09:54:41.871Z,9.20
2023-01-19T09:55:41.843Z,9.50
2023-01-19T09:56:41.838Z,9.40
2023-01-19T09:57:41.833Z,9.10
2023-01-19T09:58:41.819Z,9.00
2023-01-19T09:59:41.807Z,9.50
2023-01-19T10:00:41.798Z,9.00
2023-01-19T10:01:41.876Z,8.80
2023-01-19T10:02:41.949Z,9.20
2023-01-19T10:03:41.754Z,9.00
2023-01-19T10:04:41.753Z,9.20
2023-01-19T10:05:41.735Z,9.90
2023-01-19T10:06:41.722Z,9.30
2023-01-19T10:07:41.742Z,9.10
2023-01-19T10:08:41.707Z,8.70
2023-01-19T10:09:41.692Z,9.00
2023-01-19T10:10:41.704Z,10.60
2023-01-19T10:11:52.012Z,9.10
2023-01-19T10:12:42.669Z,9.50
2023-01-19T10:13:41.650Z,9.30
2023-01-19T10:14:41.657Z,9.20
2023-01-19T10:15:41.622Z,8.90
2023-01-19T10:16:41.641Z,9.70
2023-01-19T10:17:41.617Z,8.90
2023-01-19T10:18:41.594Z,10.00
2023-01-19T10:19:41.593Z,9.70
2023-01-19T10:20:41.599Z,9.00
2023-01-19T10:21:41.569Z,9.40
2023-01-19T10:22:41.583Z,10.00
2023-01-19T10:23:41.549Z,9.20
2023-01-19T10:24:41.559Z,9.30
2023-01-19T10:25:41.546Z,10.30
2023-01-19T10:26:41.517Z,9.60
2023-01-19T10:27:41.508Z,9.50
2023-01-19T10:28:41.492Z,9.60
2023-01-19T10:29:41.484Z,9.40
2023-01-19T10:30:41.507Z,9.90
2023-01-19T10:31:41.526Z,9.50
2023-01-19T10:32:41.460Z,10.70
2023-01-19T10:33:41.448Z,9.90
2023-01-19T10:34:41.430Z,9.90
2023-01-19T10:35:41.435Z,9.90
2023-01-19T10:36:41.384Z,10.50
2023-01-19T10:37:41.431Z,10.00
2023-01-19T10:38:41.383Z,10.90
2023-01-19T10:39:41.368Z,10.50
2023-01-19T10:40:41.416Z,10.50
2023-01-19T10:41:41.364Z,10.40
2023-01-19T10:42:41.371Z,10.70
2023-01-19T10:43:41.336Z,10.00
2023-01-19T10:44:41.376Z,10.90
2023-01-19T10:45:41.347Z,10.70
2023-01-19T10:46:41.285Z,10.00
2023-01-19T10:47:41.305Z,10.80
2023-01-19T10:48:41.274Z,11.50
2023-01-19T10:49:41.277Z,11.50
2023-01-19T10:50:41.236Z,11.10
2023-01-19T10:51:41.294Z,11.50
2023-01-19T10:52:41.246Z,11.30
2023-01-19T10:53:41.263Z,11.80
2023-01-19T10:54:41.190Z,11.20
2023-01-19T10:55:41.233Z,11.90
2023-01-19T10:56:41.235Z,11.90
2023-01-19T10:57:41.196Z,11.20
2023-01-19T10:58:41.167Z,11.60
2023-01-19T10:59:41.165Z,11.50
2023-01-19T11:00:41.195Z,11.60
2023-01-19T11:01:41.252Z,11.00
2023-01-19T11:02:41.174Z,11.00
2023-01-19T11:03:41.102Z,11.70
2023-01-19T11:04:41.082Z,10.90
2023-01-19T11:05:41.095Z,12.00
2023-01-19T11:06:41.068Z,11.40
2023-01-19T11:07:41.086Z,11.30
2023-01-19T11:08:41.065Z,11.10
2023-01-19T11:09:41.029Z,10.90
2023-01-19T11:10:41.038Z,11.40
2023-01-19T11:11:41.020Z,11.30
2023-01-19T11:12:40.999Z,12.10
2023-01-19T11:13:41.019Z,11.00
2023-01-19T11:14:40.980Z,11.20
2023-01-19T11:15:40.967Z,10.70
2023-01-19T11:16:41.001Z,11.40
2023-01-19T11:17:40.961Z,11.30
2023-01-19T11:18:40.939Z,10.80
2023-01-19T11:19:40.919Z,11.50
2023-01-19T11:20:40.909Z,11.70
2023-01-19T11:21:40.899Z,11.10
2023-01-19T11:22:40.943Z,11.30
2023-01-19T11:23:40.880Z,10.90
2023-01-19T11:24:40.872Z,11.90
2023-01-19T11:25:40.869Z,11.10
2023-01-19T11:26:40.855Z,11.40
2023-01-19T11:27:40.865Z,11.50
2023-01-19T11:28:42.439Z,11.10
2023-01-19T11:29:40.819Z,11.20
2023-01-19T11:30:40.861Z,11.20
2023-01-19T11:31:40.824Z,10.70
2023-01-19T11:32:40.790Z,10.60
2023-01-19T11:33:40.773Z,10.50
2023-01-19T11:34:40.759Z,11.30
2023-01-19T11:35:40.758Z,10.50
2023-01-19T11:36:40.760Z,11.00
2023-01-19T11:37:40.751Z,10.40
2023-01-19T11:38:40.712Z,9.80
2023-01-19T11:39:40.735Z,9.50
2023-01-19T11:40:40.693Z,9.50
2023-01-19T11:41:40.683Z,9.60
2023-01-19T11:42:40.681Z,10.30
2023-01-19T11:43:49.089Z,9.60
2023-01-19T11:44:41.662Z,9.40
2023-01-19T11:45:40.654Z,9.60
2023-01-19T11:46:40.628Z,9.60
2023-01-19T11:47:40.631Z,10.20
2023-01-19T11:48:40.604Z,9.60
2023-01-19T11:49:40.637Z,9.90
2023-01-19T11:50:40.592Z,9.60
2023-01-19T11:51:40.582Z,9.40
2023-01-19T11:52:42.942Z,9.30
2023-01-19T11:53:40.562Z,9.30
2023-01-19T11:54:40.543Z,9.20
2023-01-19T11:55:40.544Z,10.10
2023-01-19T11:56:40.523Z,9.20
2023-01-19T11:57:40.536Z,9.30
2023-01-19T11:58:40.502Z,9.30
2023-01-19T11:59:40.493Z,9.70
2023-01-19T12:00:40.489Z,9.60
2023-01-19T12:01:40.486Z,9.10
2023-01-19T12:02:40.473Z,9.60
2023-01-19T12:03:40.487Z,8.00
2023-01-19T12:04:40.432Z,8.10
2023-01-19T12:05:40.430Z,9.20
2023-01-19T12:06:40.428Z,9.10
2023-01-19T12:07:40.424Z,9.00
2023-01-19T12:08:40.391Z,8.30
2023-01-19T12:09:40.391Z,9.40
2023-01-19T12:10:40.366Z,9.20
2023-01-19T12:11:40.372Z,8.60
2023-01-19T12:12:40.355Z,8.20
2023-01-19T12:13:40.336Z,8.30
2023-01-19T12:14:40.315Z,8.60
2023-01-19T12:15:40.352Z,8.40
2023-01-19T12:16:40.374Z,8.40
2023-01-19T12:17:40.362Z,8.00
2023-01-19T12:18:40.276Z,7.70
2023-01-19T12:19:40.294Z,7.90
2023-01-19T12:20:40.285Z,7.90
2023-01-19T12:21:40.247Z,7.80
2023-01-19T12:22:40.248Z,7.50
2023-01-19T12:23:40.228Z,6.40
2023-01-19T12:24:40.208Z,7.40
2023-01-19T12:25:40.283Z,7.20
2023-01-19T12:26:40.188Z,7.20
2023-01-19T12:27:40.199Z,7.40
2023-01-19T12:28:40.169Z,7.40
2023-01-19T12:29:40.447Z,7.20
2023-01-19T12:30:40.245Z,6.90
2023-01-19T12:31:40.314Z,7.30
2023-01-19T12:32:40.142Z,7.50
2023-01-19T12:33:40.125Z,7.70
2023-01-19T12:34:40.101Z,7.10
2023-01-19T12:35:40.095Z,7.50
2023-01-19T12:36:40.112Z,8.00
2023-01-19T12:37:40.087Z,6.40
2023-01-19T12:38:40.060Z,7.30
2023-01-19T12:39:40.063Z,7.00
2023-01-19T12:40:40.046Z,6.90
2023-01-19T12:41:40.040Z,7.10
2023-01-19T12:42:40.025Z,7.10
2023-01-19T12:43:40.006Z,7.00
2023-01-19T12:44:39.996Z,7.30
2023-01-19T12:45:39.977Z,7.10
2023-01-19T12:46:39.992Z,6.90
2023-01-19T12:47:39.990Z,5.50
2023-01-19T12:48:39.938Z,6.60
2023-01-19T12:49:39.952Z,6.90
2023-01-19T12:50:39.926Z,6.40
2023-01-19T12:51:39.912Z,5.60
2023-01-19T12:52:39.920Z,7.10
2023-01-19T12:53:39.896Z,6.20
2023-01-19T12:54:39.933Z,6.60
2023-01-19T12:55:39.870Z,6.30
2023-01-19T12:56:39.881Z,6.00
2023-01-19T12:57:39.863Z,6.40
2023-01-19T12:58:39.830Z,6.90
2023-01-19T12:59:39.831Z,6.50
2023-01-19T13:00:39.812Z,6.20
2023-01-19T13:01:39.959Z,6.50
2023-01-19T13:02:39.842Z,7.30
2023-01-19T13:03:39.781Z,5.80
2023-01-19T13:04:39.778Z,5.90
2023-01-19T13:05:39.785Z,5.90
2023-01-19T13:06:39.742Z,6.60
2023-01-19T13:07:39.761Z,6.50
2023-01-19T13:08:39.724Z,6.20
2023-01-19T13:09:39.716Z,6.40
2023-01-19T13:10:39.707Z,6.30
2023-01-19T13:11:39.715Z,6.10
2023-01-19T13:12:39.694Z,6.60
2023-01-19T13:13:39.690Z,6.40
2023-01-19T13:14:39.668Z,6.40